createdAt,value
2017-12-04T00:00:36.724Z,19.30
2017-12-04T00:03:03.780Z,19.90
2017-12-04T00:05:31.071Z,19.47
2017-12-04T00:07:58.342Z,18.07
2017-12-04T00:10:25.604Z,18.13
2017-12-04T00:12:52.876Z,20.17
2017-12-04T00:15:20.148Z,19.93
2017-12-04T00:17:47.425Z,19.20
2017-12-04T00:20:14.690Z,18.83
2017-12-04T00:22:41.964Z,20.33
2017-12-04T00:25:09.226Z,21.60
2017-12-04T00:27:36.544Z,20.20
2017-12-04T00:30:03.910Z,21.00
2017-12-04T00:32:31.266Z,21.80
2017-12-04T00:34:58.526Z,18.90
2017-12-04T00:37:25.809Z,19.67
2017-12-04T00:39:53.069Z,20.67
2017-12-04T00:42:20.336Z,17.70
2017-12-04T00:44:47.621Z,20.33
2017-12-04T00:47:14.881Z,22.23
2017-12-04T00:49:42.159Z,18.73
2017-12-04T00:52:09.422Z,16.73
2017-12-04T00:54:36.696Z,18.10
2017-12-04T00:57:03.961Z,14.67
2017-12-04T00:59:31.242Z,16.63
2017-12-04T01:01:58.501Z,16.53
2017-12-04T01:04:25.781Z,15.43
2017-12-04T01:06:53.042Z,13.20
2017-12-04T01:09:20.320Z,14.33
2017-12-04T01:11:47.589Z,13.30
2017-12-04T01:14:14.863Z,16.00
2017-12-04T01:16:42.130Z,13.30
2017-12-04T01:19:09.421Z,15.67
2017-12-04T01:21:36.690Z,17.30
2017-12-04T01:24:03.949Z,17.73
2017-12-04T01:26:31.235Z,13.27
2017-12-04T01:28:58.492Z,12.53
2017-12-04T01:31:25.769Z,13.90
2017-12-04T01:33:53.041Z,13.87
2017-12-04T01:36:20.300Z,13.53
2017-12-04T01:38:47.576Z,14.90
2017-12-04T01:41:14.849Z,15.03
2017-12-04T01:43:42.113Z,14.37
2017-12-04T01:46:09.393Z,13.70
2017-12-04T01:48:36.657Z,12.13
2017-12-04T01:51:03.933Z,12.03
2017-12-04T01:53:31.196Z,13.90
2017-12-04T01:55:58.481Z,15.97
2017-12-04T01:58:25.736Z,17.90
2017-12-04T02:00:53.000Z,15.47
2017-12-04T02:03:20.281Z,15.83
2017-12-04T02:05:47.607Z,15.10
2017-12-04T02:08:14.888Z,15.57
2017-12-04T02:10:42.225Z,13.83
2017-12-04T02:13:09.501Z,13.50
2017-12-04T02:15:36.760Z,15.40
2017-12-04T02:20:37.859Z,12.60
2017-12-04T02:23:05.133Z,13.80
2017-12-04T02:25:32.396Z,13.30
2017-12-04T02:27:59.677Z,17.87
2017-12-04T02:30:26.937Z,18.70
2017-12-04T02:32:54.213Z,15.27
2017-12-04T02:35:21.472Z,14.53
2017-12-04T02:37:48.758Z,14.70
2017-12-04T02:40:16.024Z,15.73
2017-12-04T02:42:43.300Z,15.80
2017-12-04T02:45:10.620Z,15.87
2017-12-04T02:47:37.898Z,14.77
2017-12-04T02:50:05.180Z,14.93
2017-12-04T02:52:32.449Z,13.40
2017-12-04T02:54:59.721Z,14.00
2017-12-04T02:57:26.988Z,16.40
2017-12-04T02:59:54.265Z,14.20
2017-12-04T03:02:21.601Z,11.80
2017-12-04T03:04:48.880Z,15.83
2017-12-04T03:07:16.141Z,13.77
2017-12-04T03:09:43.424Z,14.93
2017-12-04T03:12:10.685Z,11.93
2017-12-04T03:14:37.964Z,10.90
2017-12-04T03:17:05.226Z,16.13
2017-12-04T03:19:32.532Z,14.40
2017-12-04T03:21:59.798Z,14.23
2017-12-04T03:24:27.058Z,13.97
2017-12-04T03:26:54.333Z,13.87
2017-12-04T03:29:21.601Z,13.10
2017-12-04T03:31:48.867Z,13.10
2017-12-04T03:34:16.132Z,12.83
2017-12-04T03:36:43.420Z,15.50
2017-12-04T03:39:10.677Z,15.03
2017-12-04T03:41:37.952Z,13.90
2017-12-04T03:44:05.219Z,13.93
2017-12-04T03:46:32.500Z,13.10
2017-12-04T03:48:59.765Z,15.97
2017-12-04T03:51:27.049Z,15.30
2017-12-04T03:53:54.300Z,12.03
2017-12-04T03:56:21.584Z,12.73
2017-12-04T03:58:48.840Z,16.77
2017-12-04T04:01:16.117Z,14.70
2017-12-04T04:03:43.380Z,18.00
2017-12-04T04:06:10.665Z,13.43
2017-12-04T04:08:37.933Z,13.60
2017-12-04T04:11:05.202Z,15.43
2017-12-04T04:13:32.472Z,14.93
2017-12-04T04:15:59.734Z,12.60
2017-12-04T04:18:27.010Z,12.33
2017-12-04T04:20:54.274Z,14.00
2017-12-04T04:23:21.556Z,12.07
2017-12-04T04:25:48.813Z,11.07
2017-12-04T04:28:16.098Z,11.40
2017-12-04T04:30:43.358Z,11.43
2017-12-04T04:33:10.633Z,13.60
2017-12-04T04:35:37.901Z,12.03
2017-12-04T04:38:05.177Z,11.27
2017-12-04T04:40:32.438Z,11.87
2017-12-04T04:42:59.709Z,14.27
2017-12-04T04:45:26.972Z,13.50
2017-12-04T04:47:54.248Z,11.87
2017-12-04T04:50:21.509Z,12.57
2017-12-04T04:52:48.824Z,12.77
2017-12-04T04:55:16.077Z,13.63
2017-12-04T04:57:43.343Z,15.40
2017-12-04T05:00:10.622Z,11.87
2017-12-04T05:02:37.881Z,9.83
2017-12-04T05:05:05.160Z,10.97
2017-12-04T05:07:32.420Z,10.77
2017-12-04T05:09:59.700Z,9.87
2017-12-04T05:12:26.953Z,11.10
2017-12-04T05:14:54.233Z,12.40
2017-12-04T05:17:21.561Z,10.80
2017-12-04T05:19:48.842Z,15.33
2017-12-04T05:22:16.106Z,10.97
2017-12-04T05:24:43.388Z,10.77
2017-12-04T05:27:10.649Z,11.97
2017-12-04T05:29:37.921Z,9.90
2017-12-04T05:32:05.184Z,10.43
2017-12-04T05:34:32.466Z,10.30
2017-12-04T05:36:59.726Z,13.63
2017-12-04T05:39:27.008Z,15.60
2017-12-04T05:41:54.273Z,18.03
2017-12-04T05:44:21.535Z,14.70
2017-12-04T05:46:48.808Z,12.60
2017-12-04T05:49:16.069Z,11.80
2017-12-04T05:51:43.345Z,11.30
2017-12-04T05:54:10.615Z,15.60
2017-12-04T05:56:37.899Z,15.47
2017-12-04T05:59:05.153Z,11.50
2017-12-04T06:01:32.434Z,14.30
2017-12-04T06:03:59.693Z,14.57
2017-12-04T06:06:26.973Z,13.33
2017-12-04T06:08:54.240Z,12.00
2017-12-04T06:11:21.565Z,13.33
2017-12-04T06:13:48.782Z,14.67
2017-12-04T06:16:16.056Z,14.70
2017-12-04T06:18:43.321Z,14.93
2017-12-04T06:21:10.592Z,11.57
2017-12-04T06:23:37.855Z,8.87
2017-12-04T06:26:05.141Z,10.30
2017-12-04T06:28:32.405Z,13.03
2017-12-04T06:30:59.703Z,10.93
2017-12-04T06:33:26.962Z,12.80
2017-12-04T06:35:54.240Z,9.87
2017-12-04T06:38:21.525Z,9.73
2017-12-04T06:40:48.788Z,11.60
2017-12-04T06:43:16.088Z,12.07
2017-12-04T06:45:43.352Z,12.30
2017-12-04T06:48:10.617Z,10.93
2017-12-04T06:50:37.909Z,11.73
2017-12-04T06:53:05.165Z,9.03
2017-12-04T06:55:32.458Z,10.17
2017-12-04T06:57:59.771Z,11.57
2017-12-04T07:00:27.009Z,9.47
2017-12-04T07:02:54.283Z,8.97
2017-12-04T07:05:21.567Z,10.80
2017-12-04T07:07:48.851Z,11.23
2017-12-04T07:10:16.129Z,9.50
2017-12-04T07:12:43.385Z,9.73
2017-12-04T07:15:10.665Z,9.33
2017-12-04T07:17:37.916Z,10.20
2017-12-04T07:20:05.205Z,9.53
2017-12-04T07:22:32.460Z,10.53
2017-12-04T07:24:59.757Z,9.10
2017-12-04T07:27:27.013Z,10.20
2017-12-04T07:29:54.273Z,8.97
2017-12-04T07:32:21.553Z,10.13
2017-12-04T07:34:48.821Z,10.07
2017-12-04T07:37:16.097Z,9.23
2017-12-04T07:39:43.362Z,11.57
2017-12-04T07:42:10.652Z,9.90
2017-12-04T07:44:37.909Z,11.80
2017-12-04T07:47:05.170Z,10.70
2017-12-04T07:49:32.465Z,10.03
2017-12-04T07:51:59.725Z,9.27
2017-12-04T07:54:27.022Z,9.30
2017-12-04T07:56:54.282Z,9.30
2017-12-04T07:59:21.537Z,9.83
2017-12-04T08:01:48.814Z,9.57
2017-12-04T08:04:16.073Z,10.63
2017-12-04T08:06:43.370Z,9.83
2017-12-04T08:09:10.628Z,11.10
2017-12-04T08:11:37.908Z,9.73
2017-12-04T08:14:05.174Z,10.70
2017-12-04T08:16:32.465Z,9.10
2017-12-04T08:18:59.722Z,8.97
2017-12-04T08:21:26.972Z,8.93
2017-12-04T08:23:54.248Z,8.97
2017-12-04T08:26:21.504Z,12.50
2017-12-04T08:28:48.785Z,7.70
2017-12-04T08:31:16.046Z,9.47
2017-12-04T08:33:43.329Z,12.07
2017-12-04T08:36:10.609Z,8.20
2017-12-04T08:38:37.905Z,8.30
2017-12-04T08:41:05.159Z,8.30
2017-12-04T08:43:32.408Z,7.00
2017-12-04T08:45:59.695Z,7.53
2017-12-04T08:48:26.980Z,8.80
2017-12-04T08:50:54.224Z,7.90
2017-12-04T08:53:21.488Z,11.50
2017-12-04T08:55:48.776Z,10.10
2017-12-04T08:58:16.065Z,7.83
2017-12-04T09:00:43.337Z,8.80
2017-12-04T09:03:10.597Z,10.23
2017-12-04T09:05:37.883Z,8.40
2017-12-04T09:08:05.156Z,8.47
2017-12-04T09:10:32.420Z,8.97
2017-12-04T09:12:59.702Z,8.00
2017-12-04T09:15:26.980Z,9.40
2017-12-04T09:17:54.277Z,7.60
2017-12-04T09:20:21.533Z,7.57
2017-12-04T09:22:48.788Z,8.27
2017-12-04T09:25:16.071Z,7.80
2017-12-04T09:27:43.355Z,8.53
2017-12-04T09:30:10.608Z,8.20
2017-12-04T09:32:37.857Z,8.70
2017-12-04T09:35:05.152Z,7.73
2017-12-04T09:37:32.409Z,7.80
2017-12-04T09:39:59.661Z,7.30
2017-12-04T09:42:26.940Z,8.30
2017-12-04T09:44:54.237Z,7.33
2017-12-04T09:47:21.484Z,6.80
2017-12-04T09:49:48.761Z,9.90
2017-12-04T09:52:16.090Z,6.83
2017-12-04T09:54:43.343Z,7.50
2017-12-04T09:57:10.598Z,7.80
2017-12-04T09:59:37.877Z,6.20
2017-12-04T10:02:05.136Z,9.40
2017-12-04T10:04:32.413Z,7.80
2017-12-04T10:06:59.696Z,6.73
2017-12-04T10:09:26.944Z,7.47
2017-12-04T10:11:54.230Z,7.10
2017-12-04T10:14:21.481Z,7.10
2017-12-04T10:16:48.761Z,6.73
2017-12-04T10:19:16.024Z,6.80
2017-12-04T10:21:43.301Z,6.73
2017-12-04T10:24:10.545Z,6.50
2017-12-04T10:26:37.840Z,6.70
2017-12-04T10:29:05.112Z,6.37
2017-12-04T10:31:32.378Z,6.70
2017-12-04T10:33:59.696Z,7.57
2017-12-04T10:36:26.980Z,6.80
2017-12-04T10:38:54.258Z,6.17
2017-12-04T10:41:21.561Z,7.63
2017-12-04T10:43:48.843Z,5.87
2017-12-04T10:46:16.096Z,7.13
2017-12-04T10:48:43.433Z,6.53
2017-12-04T10:51:10.673Z,5.43
2017-12-04T10:53:37.961Z,6.50
2017-12-04T10:56:05.215Z,7.60
2017-12-04T10:58:32.537Z,7.83
2017-12-04T11:00:59.797Z,9.33
2017-12-04T11:03:27.049Z,8.73
2017-12-04T11:05:54.336Z,7.57
2017-12-04T11:08:21.593Z,8.60
2017-12-04T11:10:48.873Z,8.20
2017-12-04T11:13:16.156Z,7.93
2017-12-04T11:15:43.446Z,8.80
2017-12-04T11:18:10.732Z,9.30
2017-12-04T11:20:37.992Z,8.70
2017-12-04T11:23:05.251Z,8.90
2017-12-04T11:25:32.530Z,9.50
2017-12-04T11:27:59.781Z,9.90
2017-12-04T11:30:27.137Z,8.87
2017-12-04T11:32:54.504Z,8.80
2017-12-04T11:35:21.749Z,9.20
2017-12-04T11:37:49.037Z,9.37
2017-12-04T11:40:16.769Z,8.87
2017-12-04T11:42:44.237Z,10.30
2017-12-04T11:45:11.497Z,9.20
2017-12-04T11:47:38.756Z,8.50
2017-12-04T11:50:06.037Z,10.63
2017-12-04T11:52:33.329Z,9.40
2017-12-04T11:55:00.613Z,10.00
2017-12-04T11:57:28.029Z,10.10
2017-12-04T12:00:01.226Z,10.00
2017-12-04T12:02:30.109Z,9.80
2017-12-04T12:04:57.365Z,9.03
2017-12-04T12:07:24.665Z,9.13
2017-12-04T12:09:51.917Z,9.20
2017-12-04T12:12:20.136Z,9.27
2017-12-04T12:14:49.037Z,9.90
2017-12-04T12:17:16.313Z,12.43
2017-12-04T12:19:43.601Z,10.27
2017-12-04T12:22:10.864Z,9.17
2017-12-04T12:24:38.140Z,9.57
2017-12-04T12:27:05.423Z,9.80
2017-12-04T12:29:32.689Z,9.40
2017-12-04T12:31:59.948Z,9.67
2017-12-04T12:34:27.230Z,10.07
2017-12-04T12:36:54.527Z,9.83
2017-12-04T12:39:21.788Z,10.07
2017-12-04T12:41:49.037Z,8.13
2017-12-04T12:44:16.322Z,9.53
2017-12-04T12:46:43.582Z,8.80
2017-12-04T12:49:10.862Z,8.23
2017-12-04T12:51:38.125Z,8.67
2017-12-04T12:54:06.125Z,9.03
2017-12-04T12:56:33.402Z,9.30
2017-12-04T12:59:00.755Z,8.17
2017-12-04T13:01:28.041Z,10.33
2017-12-04T13:03:55.302Z,8.50
2017-12-04T13:06:22.650Z,8.33
2017-12-04T13:08:49.977Z,8.43
2017-12-04T13:11:17.333Z,8.57
2017-12-04T13:13:44.615Z,8.60
2017-12-04T13:16:12.752Z,8.30
2017-12-04T13:18:40.017Z,8.50
2017-12-04T13:21:07.275Z,8.27
2017-12-04T13:23:34.557Z,7.20
2017-12-04T13:26:01.840Z,8.30
2017-12-04T13:28:29.125Z,8.60
2017-12-04T13:30:56.377Z,9.57
2017-12-04T13:33:29.480Z,9.10
2017-12-04T13:36:02.758Z,7.93
2017-12-04T13:38:30.217Z,9.10
2017-12-04T13:40:57.477Z,9.27
2017-12-04T13:43:24.759Z,8.83
2017-12-04T13:45:52.758Z,8.63
2017-12-04T13:48:20.041Z,8.13
2017-12-04T13:50:47.300Z,7.80
2017-12-04T13:53:14.557Z,8.03
2017-12-04T13:55:41.836Z,7.87
2017-12-04T13:58:09.275Z,8.07
2017-12-04T14:00:36.536Z,8.90
2017-12-04T14:03:03.821Z,8.23
2017-12-04T14:05:31.087Z,11.50
2017-12-04T14:07:58.351Z,8.77
2017-12-04T14:10:25.643Z,7.47
2017-12-04T14:12:52.889Z,7.73
2017-12-04T14:15:20.142Z,9.33
2017-12-04T14:17:47.427Z,9.30
2017-12-04T14:20:14.681Z,8.03
2017-12-04T14:22:41.978Z,10.20
2017-12-04T14:25:09.268Z,10.80
2017-12-04T14:27:36.624Z,8.63
2017-12-04T14:30:04.046Z,9.73
2017-12-04T14:32:31.335Z,9.20
2017-12-04T14:34:58.584Z,8.53
2017-12-04T14:37:25.885Z,10.93
2017-12-04T14:39:53.192Z,11.20
2017-12-04T14:42:20.456Z,12.60
2017-12-04T14:44:47.800Z,11.63
2017-12-04T14:47:15.097Z,10.30
2017-12-04T14:49:42.367Z,9.70
2017-12-04T14:52:09.617Z,10.00
2017-12-04T14:54:36.893Z,9.77
2017-12-04T14:57:04.153Z,10.40
2017-12-04T14:59:31.433Z,9.70
2017-12-04T15:01:58.689Z,9.80
2017-12-04T15:04:25.968Z,8.67
2017-12-04T15:06:53.246Z,9.10
2017-12-04T15:09:20.504Z,9.80
2017-12-04T15:11:47.822Z,9.30
2017-12-04T15:14:15.073Z,9.30
2017-12-04T15:16:42.332Z,9.67
2017-12-04T15:19:09.605Z,10.43
2017-12-04T15:21:36.910Z,8.53
2017-12-04T15:24:04.201Z,8.00
2017-12-04T15:26:31.461Z,10.93
2017-12-04T15:28:58.721Z,8.80
2017-12-04T15:31:26.005Z,9.70
2017-12-04T15:33:53.281Z,9.20
2017-12-04T15:36:20.541Z,8.43
2017-12-04T15:38:47.826Z,10.00
2017-12-04T15:41:15.865Z,10.43
2017-12-04T15:43:43.157Z,10.40
2017-12-04T15:46:10.417Z,13.03
2017-12-04T15:48:37.693Z,11.33
2017-12-04T15:51:04.982Z,11.23
2017-12-04T15:53:32.269Z,11.97
2017-12-04T15:55:59.552Z,13.27
2017-12-04T15:58:26.817Z,15.00
2017-12-04T16:00:54.194Z,12.27
2017-12-04T16:03:21.456Z,14.00
2017-12-04T16:05:48.761Z,14.17
2017-12-04T16:08:16.029Z,17.43
2017-12-04T16:10:43.297Z,13.43
2017-12-04T16:13:10.594Z,14.63
2017-12-04T16:15:37.877Z,13.57
2017-12-04T16:18:05.140Z,17.30
2017-12-04T16:20:32.430Z,15.00
2017-12-04T16:22:59.723Z,14.23
2017-12-04T16:25:26.982Z,13.13
2017-12-04T16:27:54.265Z,14.23
2017-12-04T16:30:21.526Z,14.70
2017-12-04T16:32:48.817Z,15.13
2017-12-04T16:35:16.081Z,14.30
2017-12-04T16:37:43.377Z,12.53
2017-12-04T16:40:10.636Z,15.33
2017-12-04T16:42:37.900Z,14.03
2017-12-04T16:45:05.202Z,15.73
2017-12-04T16:47:32.500Z,14.13
2017-12-04T16:49:59.768Z,15.27
2017-12-04T16:52:27.070Z,14.77
2017-12-04T16:54:54.328Z,15.50
2017-12-04T16:57:21.621Z,13.97
2017-12-04T16:59:48.892Z,12.77
2017-12-04T17:02:16.263Z,13.90
2017-12-04T17:04:43.550Z,14.07
2017-12-04T17:07:10.814Z,13.00
2017-12-04T17:09:38.096Z,13.57
2017-12-04T17:12:05.357Z,14.43
2017-12-04T17:14:32.636Z,15.30
2017-12-04T17:16:59.927Z,14.40
2017-12-04T17:19:27.204Z,13.40
2017-12-04T17:21:54.461Z,13.30
2017-12-04T17:24:21.767Z,13.60
2017-12-04T17:26:49.021Z,14.53
2017-12-04T17:29:16.305Z,13.40
2017-12-04T17:31:43.711Z,13.53
2017-12-04T17:34:10.997Z,14.70
2017-12-04T17:36:38.280Z,13.30
2017-12-04T17:39:05.567Z,15.37
2017-12-04T17:41:32.820Z,13.57
2017-12-04T17:44:00.113Z,14.13
2017-12-04T17:46:27.377Z,16.03
2017-12-04T17:48:54.675Z,13.47
2017-12-04T17:51:21.931Z,13.80
2017-12-04T17:53:49.188Z,14.10
2017-12-04T17:56:16.472Z,13.53
2017-12-04T17:58:43.744Z,15.60
2017-12-04T18:01:11.036Z,14.17
2017-12-04T18:03:38.368Z,15.97
2017-12-04T18:06:05.654Z,14.80
2017-12-04T18:08:33.215Z,16.23
2017-12-04T18:11:00.506Z,15.20
2017-12-04T18:13:27.768Z,17.70
2017-12-04T18:15:55.029Z,15.67
2017-12-04T18:18:22.317Z,14.93
2017-12-04T18:20:49.572Z,15.57
2017-12-04T18:23:16.838Z,15.10
2017-12-04T18:25:44.121Z,15.20
2017-12-04T18:28:11.380Z,15.87
2017-12-04T18:30:38.644Z,16.10
2017-12-04T18:33:05.940Z,15.97
2017-12-04T18:35:33.197Z,15.27
2017-12-04T18:38:00.487Z,15.87
2017-12-04T18:40:27.777Z,19.17
2017-12-04T18:42:55.029Z,15.20
2017-12-04T18:47:56.045Z,15.20
2017-12-04T18:50:23.297Z,17.23
2017-12-04T18:52:50.560Z,16.60
2017-12-04T18:55:17.844Z,16.10
2017-12-04T18:57:45.105Z,15.87
2017-12-04T19:00:12.390Z,16.70
2017-12-04T19:02:39.676Z,19.17
2017-12-04T19:05:06.941Z,18.57
2017-12-04T19:07:34.228Z,18.40
2017-12-04T19:10:01.493Z,17.27
2017-12-04T19:12:28.782Z,19.67
2017-12-04T19:14:56.041Z,18.10
2017-12-04T19:17:23.314Z,19.73
2017-12-04T19:19:50.593Z,20.73
2017-12-04T19:22:17.853Z,18.80
2017-12-04T19:24:45.119Z,19.87
2017-12-04T19:27:12.412Z,18.30
2017-12-04T19:29:39.676Z,18.53
2017-12-04T19:32:06.943Z,19.03
2017-12-04T19:34:34.228Z,18.60
2017-12-04T19:37:01.509Z,17.63
2017-12-04T19:39:28.791Z,20.27
2017-12-04T19:41:56.071Z,21.67
2017-12-04T19:44:23.329Z,22.93
2017-12-04T19:46:50.620Z,25.57
2017-12-04T19:49:17.879Z,29.90
2017-12-04T19:51:45.163Z,20.00
2017-12-04T19:54:12.449Z,21.97
2017-12-04T19:56:39.707Z,21.37
2017-12-04T19:59:07.005Z,19.20
2017-12-04T20:01:34.267Z,20.73
2017-12-04T20:04:01.529Z,23.40
2017-12-04T20:06:28.817Z,22.87
2017-12-04T20:08:56.077Z,20.93
2017-12-04T20:11:23.372Z,21.70
2017-12-04T20:13:50.646Z,22.23
2017-12-04T20:16:17.910Z,24.70
2017-12-04T20:18:45.202Z,23.57
2017-12-04T20:21:12.568Z,21.60
2017-12-04T20:23:39.924Z,22.20
2017-12-04T20:26:07.240Z,22.27
2017-12-04T20:28:34.492Z,21.30
2017-12-04T20:31:01.780Z,22.60
2017-12-04T20:33:29.072Z,23.07
2017-12-04T20:35:56.337Z,23.57
2017-12-04T20:38:23.599Z,19.87
2017-12-04T20:40:50.884Z,24.57
2017-12-04T20:43:18.148Z,19.53
2017-12-04T20:45:45.409Z,21.87
2017-12-04T20:48:12.701Z,20.27
2017-12-04T20:50:39.960Z,18.43
2017-12-04T20:53:07.224Z,21.50
2017-12-04T20:55:34.539Z,21.60
2017-12-04T20:58:01.769Z,22.33
2017-12-04T21:00:29.066Z,20.60
2017-12-04T21:02:56.321Z,21.90
2017-12-04T21:05:23.586Z,21.30
2017-12-04T21:07:50.873Z,20.77
2017-12-04T21:10:24.095Z,21.20
2017-12-04T21:12:57.419Z,24.70
2017-12-04T21:15:44.447Z,23.87
2017-12-04T21:18:11.733Z,20.50
2017-12-04T21:20:38.994Z,20.10
2017-12-04T21:23:06.283Z,22.47
2017-12-04T21:25:33.577Z,20.87
2017-12-04T21:28:00.856Z,21.93
2017-12-04T21:30:28.155Z,23.07
2017-12-04T21:32:55.416Z,21.53
2017-12-04T21:35:22.673Z,22.73
2017-12-04T21:37:49.963Z,25.27
2017-12-04T21:40:17.220Z,25.40
2017-12-04T21:42:44.505Z,24.60
2017-12-04T21:45:11.769Z,27.10
2017-12-04T21:47:39.149Z,28.30
2017-12-04T21:50:06.416Z,25.33
2017-12-04T21:52:33.664Z,24.77
2017-12-04T21:55:00.960Z,24.47
2017-12-04T21:57:28.237Z,24.50
2017-12-04T21:59:55.537Z,23.30
2017-12-04T22:02:22.817Z,25.73
2017-12-04T22:04:50.080Z,24.70
2017-12-04T22:07:17.371Z,23.13
2017-12-04T22:09:44.624Z,25.40
2017-12-04T22:12:11.916Z,26.23
2017-12-04T22:14:39.180Z,25.77
2017-12-04T22:17:06.444Z,26.10
2017-12-04T22:19:33.740Z,24.63
2017-12-04T22:22:00.994Z,26.33
2017-12-04T22:24:28.287Z,29.60
2017-12-04T22:26:55.565Z,30.13
2017-12-04T22:29:22.821Z,30.17
2017-12-04T22:31:50.165Z,27.57
2017-12-04T22:34:17.421Z,30.67
2017-12-04T22:36:44.688Z,27.13
2017-12-04T22:39:11.979Z,27.73
2017-12-04T22:41:39.233Z,25.13
2017-12-04T22:44:06.520Z,25.53
2017-12-04T22:46:33.785Z,30.10
2017-12-04T22:49:01.156Z,23.70
2017-12-04T22:51:28.413Z,24.77
2017-12-04T22:53:55.719Z,25.20
2017-12-04T22:56:22.976Z,26.23
2017-12-04T22:58:50.240Z,31.07
2017-12-04T23:01:17.528Z,24.30
2017-12-04T23:03:44.873Z,26.97
2017-12-04T23:06:12.163Z,24.63
2017-12-04T23:08:39.457Z,24.67
2017-12-04T23:11:06.723Z,25.40
2017-12-04T23:13:33.986Z,26.10
2017-12-04T23:16:01.274Z,24.67
2017-12-04T23:18:28.561Z,25.77
2017-12-04T23:20:55.846Z,27.53
2017-12-04T23:23:23.109Z,24.87
2017-12-04T23:25:50.464Z,27.87
2017-12-04T23:28:17.724Z,28.10
2017-12-04T23:30:45.070Z,28.73
2017-12-04T23:33:12.431Z,29.70
2017-12-04T23:35:39.725Z,29.00
2017-12-04T23:38:06.989Z,27.73
2017-12-04T23:40:34.284Z,27.83
2017-12-04T23:43:01.649Z,28.67
2017-12-04T23:45:28.905Z,37.13
2017-12-04T23:47:56.253Z,29.90
2017-12-04T23:50:23.520Z,29.53
2017-12-04T23:52:50.821Z,27.53
2017-12-04T23:55:18.093Z,28.37
2017-12-04T23:57:45.344Z,29.63
